Time;durP1;ratioP1;P1;durP2;ratioP2;P2;SDS_P1;SDS_P2;PMS_P1;PMS_P2;Temp;Humidity;BMP_temperature;BMP_pressure;BME280_temperature;BME280_humidity;BME280_pressure;Samples;Min_cycle;Max_cycle;Signal;HPM_P1;HPM_P2
2021/06/21 00:01:14;;;;;;;8.57;3.35;;;;;;;24.44;31.46;101338.19;5074726;28;20466;-76
2021/06/21 00:03:39;;;;;;;8.95;3.10;;;;;;;24.49;31.74;101337.81;5074728;28;20032;-76
2021/06/21 00:06:05;;;;;;;6.10;3.08;;;;;;;24.45;31.48;101343.38;5074861;28;20036;-76
2021/06/21 00:08:31;;;;;;;9.10;3.13;;;;;;;24.37;31.52;101346.53;5075645;28;20025;-76
2021/06/21 00:10:56;;;;;;;5.57;2.88;;;;;;;24.38;31.48;101350.94;5075548;28;20063;-76
2021/06/21 00:13:22;;;;;;;5.93;2.85;;;;;;;24.32;31.87;101347.66;5075559;28;20056;-76
2021/06/21 00:15:50;;;;;;;8.55;3.10;;;;;;;24.33;31.57;101347.34;5075461;28;20024;-76
2021/06/21 00:18:15;;;;;;;6.45;2.85;;;;;;;24.22;31.63;101345.63;5075389;28;20031;-75
2021/06/21 00:20:41;;;;;;;7.70;3.22;;;;;;;24.21;31.87;101356.00;5075265;28;20048;-76
2021/06/21 00:23:07;;;;;;;10.30;2.80;;;;;;;24.23;31.91;101348.03;5075344;28;20024;-76
2021/06/21 00:25:33;;;;;;;8.90;2.72;;;;;;;24.20;31.95;101346.03;5075448;28;20028;-76
2021/06/21 00:27:58;;;;;;;9.55;2.97;;;;;;;24.05;32.25;101347.94;5075320;28;20485;-76
2021/06/21 00:30:24;;;;;;;8.57;2.70;;;;;;;24.11;31.94;101347.56;5075317;28;20082;-76
2021/06/21 00:32:50;;;;;;;12.73;4.85;;;;;;;24.09;31.95;101351.56;5074520;28;20024;-76
2021/06/21 00:35:17;;;;;;;5.00;2.83;;;;;;;24.14;32.17;101350.38;5075212;28;20039;-76
2021/06/21 00:37:43;;;;;;;5.25;2.70;;;;;;;24.10;32.29;101357.94;5075039;28;20036;-76
2021/06/21 00:40:10;;;;;;;6.88;2.17;;;;;;;24.17;31.95;101352.38;5075080;28;20082;-76
2021/06/21 00:42:37;;;;;;;9.82;3.30;;;;;;;24.20;32.23;101348.03;5074962;28;20031;-76
2021/06/21 00:45:03;;;;;;;8.30;3.33;;;;;;;24.03;32.26;101363.47;5075070;28;20029;-76
2021/06/21 00:47:29;;;;;;;4.28;2.80;;;;;;;24.14;32.49;101358.75;5074749;28;20543;-76
2021/06/21 00:49:54;;;;;;;6.18;2.45;;;;;;;24.21;32.38;101361.59;5073169;28;20028;-76
2021/06/21 00:52:21;;;;;;;3.92;2.15;;;;;;;24.08;32.74;101365.91;5074141;28;20391;-76
2021/06/21 00:54:48;;;;;;;7.38;3.22;;;;;;;24.07;32.74;101365.09;5056904;28;20027;-76
2021/06/21 00:57:14;;;;;;;5.15;3.05;;;;;;;24.11;32.53;101369.91;5056628;28;20031;-76
2021/06/21 00:59:40;;;;;;;10.02;2.97;;;;;;;24.09;32.88;101371.09;5056814;28;20024;-76
2021/06/21 01:02:06;;;;;;;7.43;3.10;;;;;;;24.03;32.96;101364.31;5074630;28;20474;-76
2021/06/21 01:04:32;;;;;;;11.95;4.20;;;;;;;24.00;33.01;101364.25;5074567;28;20028;-76
2021/06/21 01:06:57;;;;;;;5.78;3.25;;;;;;;24.03;33.19;101364.31;5056615;28;20042;-76
2021/06/21 01:09:24;;;;;;;6.57;2.42;;;;;;;24.08;33.16;101374.28;5074503;28;20028;-76
2021/06/21 01:12:13;;;;;;;7.93;2.85;;;;;;;24.08;33.13;101368.69;5056527;28;20048;-76
2021/06/21 01:14:44;;;;;;;5.70;3.03;;;;;;;24.10;33.11;101371.88;5074478;28;20103;-76
2021/06/21 01:17:16;;;;;;;9.23;2.85;;;;;;;24.16;33.06;101372.31;5074271;28;20489;-76
2021/06/21 01:19:51;;;;;;;11.00;3.92;;;;;;;24.20;33.26;101376.75;5074404;28;20028;-76
2021/06/21 01:23:04;;;;;;;5.88;2.92;;;;;;;24.25;33.40;101381.16;5056186;28;20048;-76
2021/06/21 01:25:44;;;;;;;6.95;2.60;;;;;;;24.21;33.49;101380.34;5074267;28;20028;-76
2021/06/21 01:28:30;;;;;;;;;;;;;;;24.26;33.42;101369.59;5074618;28;20028;-76
2021/06/21 01:31:12;;;;;;;6.55;2.50;;;;;;;24.28;33.08;101374.78;5074005;28;20426;-76
2021/06/21 01:33:39;;;;;;;7.60;2.50;;;;;;;24.25;33.19;101370.78;5074137;28;20506;-76
2021/06/21 01:36:08;;;;;;;10.15;2.65;;;;;;;24.28;33.08;101378.38;5055937;28;20127;-75
2021/06/21 01:38:48;;;;;;;8.07;2.78;;;;;;;24.26;33.20;101388.34;5073915;28;20048;-76
2021/06/21 01:41:25;;;;;;;7.60;2.92;;;;;;;24.11;33.45;101384.69;5055962;28;20195;-76
2021/06/21 01:43:53;;;;;;;12.20;2.97;;;;;;;24.14;33.70;101378.31;5054912;28;20059;-76
2021/06/21 01:46:24;;;;;;;4.32;2.63;;;;;;;24.13;33.33;101381.50;5073411;28;20036;-75
2021/06/21 01:48:55;;;;;;;7.95;2.47;;;;;;;24.20;33.59;101387.13;5073812;28;20047;-76
2021/06/21 01:51:24;;;;;;;9.98;3.08;;;;;;;24.17;33.20;101379.50;5055791;28;20059;-76
2021/06/21 01:53:53;;;;;;;10.25;2.65;;;;;;;24.02;33.99;101373.84;5055456;28;20052;-76
2021/06/21 01:56:25;;;;;;;9.60;2.30;;;;;;;24.13;33.70;101382.28;5055551;28;20035;-76
2021/06/21 01:58:53;;;;;;;5.40;2.03;;;;;;;24.15;33.40;101381.91;5073594;28;20028;-76
2021/06/21 02:01:19;;;;;;;7.90;2.40;;;;;;;24.17;33.35;101382.28;5073583;28;20025;-76
2021/06/21 02:03:50;;;;;;;4.03;1.95;;;;;;;24.17;33.67;101374.72;5055374;28;20378;-76
2021/06/21 02:06:18;;;;;;;8.30;2.95;;;;;;;24.22;33.24;101377.16;5073393;28;20056;-76
2021/06/21 02:08:47;;;;;;;5.20;2.10;;;;;;;24.19;33.56;101377.16;5055503;28;20024;-77
2021/06/21 02:11:13;;;;;;;11.10;3.28;;;;;;;24.21;33.46;101380.34;5073323;28;20024;-76
2021/06/21 02:13:41;;;;;;;10.25;2.38;;;;;;;24.21;33.41;101383.13;5073243;28;20052;-75
2021/06/21 02:16:07;;;;;;;5.43;1.95;;;;;;;24.15;33.38;101379.09;5072822;28;20123;-76
2021/06/21 02:18:35;;;;;;;8.30;2.20;;;;;;;24.07;33.43;101379.06;5073163;28;20028;-78
2021/06/21 02:21:01;;;;;;;6.78;2.13;;;;;;;24.09;33.34;101378.66;5073014;28;20047;-76
2021/06/21 02:23:27;;;;;;;7.88;2.22;;;;;;;24.12;33.39;101389.06;5073135;28;20506;-75
2021/06/21 02:25:54;;;;;;;7.70;2.05;;;;;;;24.11;33.31;101387.47;5073044;28;20596;-75
2021/06/21 02:28:21;;;;;;;9.45;2.38;;;;;;;24.02;33.29;101382.22;5072983;28;20050;-76
2021/06/21 02:30:49;;;;;;;5.25;2.15;;;;;;;24.13;33.40;101387.06;5072974;28;20024;-76
2021/06/21 02:33:16;;;;;;;9.23;2.50;;;;;;;24.09;33.34;101381.47;5072941;28;20103;-76
2021/06/21 02:35:43;;;;;;;5.35;1.77;;;;;;;24.12;33.01;101389.06;5072979;28;20024;-75
2021/06/21 02:38:09;;;;;;;6.97;1.98;;;;;;;24.09;33.42;101395.41;5072799;28;20044;-76
2021/06/21 02:40:34;;;;;;;11.25;2.17;;;;;;;24.05;33.25;101397.41;5072751;28;20020;-75
2021/06/21 02:43:00;;;;;;;9.50;2.90;;;;;;;24.02;33.48;101393.38;5073152;28;20352;-76
2021/06/21 02:45:26;;;;;;;8.23;1.80;;;;;;;24.13;33.26;101396.25;5054796;28;20066;-76
2021/06/21 02:47:52;;;;;;;7.28;1.70;;;;;;;24.12;33.21;101400.25;5072710;28;20029;-75
2021/06/21 02:50:18;;;;;;;7.82;2.30;;;;;;;24.08;33.07;101399.41;5072716;28;20032;-75
2021/06/21 02:53:00;;;;;;;21.25;2.78;;;;;;;24.08;32.89;101402.19;5072610;28;20025;-76
2021/06/21 02:55:36;;;;;;;5.97;1.83;;;;;;;24.16;32.90;101403.03;5054414;28;20063;-76
2021/06/21 02:58:10;;;;;;;5.55;1.85;;;;;;;24.02;33.04;101409.31;5072574;28;20078;-76
2021/06/21 03:00:39;;;;;;;5.47;1.65;;;;;;;23.98;32.98;101406.53;5072577;28;20024;-75
2021/06/21 03:03:07;;;;;;;6.80;2.03;;;;;;;24.16;32.87;101409.41;5072687;28;20020;-76
2021/06/21 03:05:33;;;;;;;8.20;1.90;;;;;;;24.09;32.64;101412.16;5054528;28;20032;-76
2021/06/21 03:08:01;;;;;;;7.28;2.47;;;;;;;24.05;32.56;101411.34;5072529;28;20025;-76
2021/06/21 03:10:29;;;;;;;5.40;2.17;;;;;;;24.16;32.43;101409.41;5072478;28;20563;-75
2021/06/21 03:12:56;;;;;;;7.25;1.80;;;;;;;24.10;32.33;101422.13;5072397;28;20429;-75
2021/06/21 03:15:24;;;;;;;7.28;1.85;;;;;;;24.08;32.48;101418.94;5072485;28;20020;-76
2021/06/21 03:17:55;;;;;;;8.55;2.17;;;;;;;24.07;32.56;101428.50;5072270;28;20089;-76
2021/06/21 03:20:22;;;;;;;5.05;1.65;;;;;;;23.98;32.58;101422.47;5072291;28;20502;-75
2021/06/21 03:22:53;;;;;;;4.18;2.08;;;;;;;23.98;32.63;101425.25;5054646;28;20049;-76
2021/06/21 03:25:25;;;;;;;9.32;1.95;;;;;;;23.84;32.88;101427.94;5072397;28;20071;-75
2021/06/21 03:27:50;;;;;;;7.07;1.52;;;;;;;23.84;32.74;101439.09;5054485;28;20395;-76
2021/06/21 03:30:16;;;;;;;4.97;1.60;;;;;;;23.93;32.49;101436.78;5054333;28;20028;-76
2021/06/21 03:32:43;;;;;;;6.60;1.50;;;;;;;23.93;32.35;101442.38;5053688;28;20036;-76
2021/06/21 03:35:11;;;;;;;9.15;1.98;;;;;;;23.95;32.28;101443.56;5072223;28;20028;-76
2021/06/21 03:37:37;;;;;;;7.97;1.70;;;;;;;23.88;32.30;101435.16;5054168;28;20135;-76
2021/06/21 03:40:06;;;;;;;5.93;1.58;;;;;;;23.94;32.16;101443.97;5072201;28;20024;-76
2021/06/21 03:42:31;;;;;;;10.13;2.15;;;;;;;23.95;32.31;101439.97;5072146;28;20028;-76
2021/06/21 03:44:57;;;;;;;7.15;2.00;;;;;;;23.94;32.42;101449.53;5072214;28;20051;-75
2021/06/21 03:47:23;;;;;;;5.13;1.33;;;;;;;23.94;32.34;101449.53;5054152;28;20071;-76
2021/06/21 03:49:49;;;;;;;9.88;2.40;;;;;;;23.90;32.28;101457.91;5072106;28;20036;-76
2021/06/21 03:52:15;;;;;;;8.48;1.95;;;;;;;23.93;32.18;101459.09;5072143;28;20036;-76
2021/06/21 03:54:41;;;;;;;6.07;1.38;;;;;;;23.93;32.36;101456.31;5072073;28;20029;-76
2021/06/21 03:57:08;;;;;;;8.13;2.10;;;;;;;23.93;32.36;101467.47;5071963;28;20037;-76
2021/06/21 03:59:34;;;;;;;10.52;2.42;;;;;;;23.97;32.33;101468.31;5072014;28;20028;-77
2021/06/21 04:02:00;;;;;;;10.95;2.25;;;;;;;23.95;32.21;101474.28;5053990;28;20107;-75
2021/06/21 04:04:27;;;;;;;5.25;1.90;;;;;;;23.83;32.44;101474.59;5071988;28;20103;-76
2021/06/21 04:06:52;;;;;;;10.43;2.42;;;;;;;23.84;32.43;101478.97;5072000;28;20070;-76
2021/06/21 04:09:19;;;;;;;8.57;2.00;;;;;;;23.91;32.13;101483.81;5075272;28;20418;-75
2021/06/21 04:11:45;;;;;;;7.22;2.10;;;;;;;23.91;31.96;101483.81;5057739;28;20036;-76
2021/06/21 04:14:13;;;;;;;11.75;2.83;;;;;;;23.84;32.23;101489.34;5075644;28;20565;-76
2021/06/21 04:16:39;;;;;;;4.70;1.58;;;;;;;23.77;32.17;101476.94;5075498;28;20033;-76
2021/06/21 04:19:05;;;;;;;6.95;1.92;;;;;;;23.73;32.05;101490.06;5073185;28;20522;-76
2021/06/21 04:21:31;;;;;;;8.15;2.20;;;;;;;23.77;31.89;101465.75;5054845;28;20079;-76
2021/06/21 04:23:57;;;;;;;6.95;2.28;;;;;;;23.67;32.30;101491.59;5055437;28;20032;-75
2021/06/21 04:26:23;;;;;;;18.73;3.05;;;;;;;23.71;31.78;101498.00;5055345;28;20032;-76
2021/06/21 04:28:50;;;;;;;5.50;2.20;;;;;;;23.70;31.99;101499.19;5055338;28;20031;-75
2021/06/21 04:31:17;;;;;;;7.50;1.70;;;;;;;23.75;32.00;101495.25;5055232;28;20025;-75
2021/06/21 04:33:42;;;;;;;7.55;2.40;;;;;;;23.74;31.77;101499.22;5054951;28;20468;-76
2021/06/21 04:36:08;;;;;;;8.15;2.55;;;;;;;23.76;31.86;101500.44;5053914;28;20032;-76
2021/06/21 04:38:34;;;;;;;5.95;1.90;;;;;;;23.73;32.04;101501.22;5055184;28;20037;-76
2021/06/21 04:40:59;;;;;;;6.47;2.50;;;;;;;23.61;31.94;101509.06;5055158;28;20039;-75
2021/06/21 04:43:25;;;;;;;8.40;2.50;;;;;;;23.63;31.79;101512.25;5055113;28;20029;-76
2021/06/21 04:45:51;;;;;;;4.57;1.70;;;;;;;23.66;31.94;101517.88;5055117;28;20051;-75
2021/06/21 04:48:16;;;;;;;6.13;2.40;;;;;;;23.58;31.98;101512.56;5054950;28;20036;-75
2021/06/21 04:50:42;;;;;;;5.43;2.95;;;;;;;23.56;31.91;101526.91;5054938;28;20487;-75
2021/06/21 04:53:13;;;;;;;8.60;2.40;;;;;;;23.36;32.23;101531.09;5054903;28;20036;-75
2021/06/21 04:55:40;;;;;;;5.45;1.70;;;;;;;23.51;32.01;101530.06;5054875;28;20063;-76
2021/06/21 04:58:05;;;;;;;4.07;1.98;;;;;;;23.42;32.11;101530.34;5054706;28;20082;-75
2021/06/21 05:00:31;;;;;;;6.72;2.22;;;;;;;23.43;31.92;101533.97;5054718;28;20033;-75
2021/06/21 05:02:57;;;;;;;6.60;1.90;;;;;;;23.45;31.78;101534.38;5054729;28;20044;-75
2021/06/21 05:05:22;;;;;;;10.73;3.10;;;;;;;23.44;32.03;101529.97;5054622;28;20060;-76
2021/06/21 05:07:50;;;;;;;6.75;2.50;;;;;;;23.46;32.01;101549.91;5054580;28;20032;-75
2021/06/21 05:10:17;;;;;;;6.63;2.38;;;;;;;23.38;31.98;101543.47;5054565;28;20029;-76
2021/06/21 05:12:44;;;;;;;7.28;2.85;;;;;;;23.30;32.10;101544.56;5054580;28;20065;-75
2021/06/21 05:15:10;;;;;;;8.23;3.15;;;;;;;23.25;32.24;101540.13;5036514;28;20115;-75
2021/06/21 05:17:36;;;;;;;9.45;3.13;;;;;;;23.20;32.33;101539.63;5054317;28;20079;-76
2021/06/21 05:20:04;;;;;;;9.98;2.67;;;;;;;23.35;32.00;101546.19;5054125;28;20025;-75
2021/06/21 05:22:30;;;;;;;13.18;3.38;;;;;;;23.19;32.43;101538.03;5052314;28;20086;-76
2021/06/21 05:24:57;;;;;;;6.22;3.35;;;;;;;23.36;32.10;101545.84;5054274;28;20037;-76
2021/06/21 05:27:23;;;;;;;5.35;2.75;;;;;;;23.28;32.29;101544.16;5054248;28;20048;-76
2021/06/21 05:29:48;;;;;;;5.63;3.00;;;;;;;23.36;31.98;101548.63;5054243;28;20055;-76
2021/06/21 05:32:14;;;;;;;8.45;2.70;;;;;;;23.41;32.18;101544.66;5054167;28;20037;-76
2021/06/21 05:34:40;;;;;;;9.73;3.60;;;;;;;23.36;32.35;101550.59;5054082;28;20033;-76
2021/06/21 05:37:06;;;;;;;8.45;3.55;;;;;;;23.39;32.28;101559.00;5054035;28;20495;-76
2021/06/21 05:39:31;;;;;;;9.90;3.13;;;;;;;23.32;32.27;101566.47;5053983;28;20029;-76
2021/06/21 05:41:57;;;;;;;8.98;4.10;;;;;;;23.32;32.15;101560.91;5052713;28;20040;-76
2021/06/21 05:44:22;;;;;;;12.57;4.03;;;;;;;23.37;32.17;101560.56;5053961;28;20031;-75
2021/06/21 05:46:48;;;;;;;9.88;3.58;;;;;;;23.20;31.94;101565.56;5053755;28;20458;-75
2021/06/21 05:49:14;;;;;;;10.32;3.40;;;;;;;23.15;32.57;101565.88;5053814;28;20037;-76
2021/06/21 05:51:40;;;;;;;7.53;2.78;;;;;;;23.29;32.27;101565.25;5053763;28;20033;-76
2021/06/21 05:54:06;;;;;;;8.15;3.10;;;;;;;23.32;31.99;101567.28;5053785;28;20156;-76
2021/06/21 05:56:31;;;;;;;5.50;2.88;;;;;;;23.36;32.18;101570.13;5053603;28;20029;-76
2021/06/21 05:58:58;;;;;;;10.90;3.63;;;;;;;23.35;32.09;101574.06;5053663;28;20021;-76
2021/06/21 06:01:24;;;;;;;9.60;3.10;;;;;;;23.40;31.93;101579.31;5053533;28;20025;-76
2021/06/21 06:03:51;;;;;;;6.55;3.28;;;;;;;23.32;32.06;101580.41;5053538;28;20532;-76
2021/06/21 06:06:17;;;;;;;8.07;3.45;;;;;;;23.20;32.33;101578.66;5053441;28;20033;-76
2021/06/21 06:08:42;;;;;;;8.95;3.50;;;;;;;23.39;32.11;101591.66;5053466;28;20104;-76
2021/06/21 06:11:08;;;;;;;15.77;3.45;;;;;;;23.34;32.18;101584.44;5052120;28;20027;-76
2021/06/21 06:13:36;;;;;;;11.18;4.10;;;;;;;23.44;31.84;101580.19;5052061;28;20040;-76
2021/06/21 06:16:02;;;;;;;9.63;5.22;;;;;;;23.46;31.88;101578.59;5053235;28;20025;-76
2021/06/21 06:18:28;;;;;;;11.65;3.75;;;;;;;23.37;32.30;101589.25;5053377;28;20107;-77
2021/06/21 06:20:53;;;;;;;6.15;3.72;;;;;;;23.47;32.19;101584.97;5052976;28;20133;-76
2021/06/21 06:23:19;;;;;;;15.18;5.45;;;;;;;23.23;32.75;101587.09;5053183;28;20418;-76
2021/06/21 06:25:45;;;;;;;9.73;3.63;;;;;;;23.35;32.20;101593.59;5053162;28;20029;-76
2021/06/21 06:28:10;;;;;;;9.05;3.13;;;;;;;23.63;31.78;101602.34;5053180;28;20036;-76
2021/06/21 06:30:37;;;;;;;9.75;3.65;;;;;;;23.71;31.69;101603.22;5052563;28;20040;-76
2021/06/21 06:33:03;;;;;;;6.93;3.85;;;;;;;23.69;31.92;101594.44;5053096;28;20036;-76
2021/06/21 06:35:28;;;;;;;11.73;4.82;;;;;;;23.61;31.78;101595.53;5053114;28;20025;-75
2021/06/21 06:37:54;;;;;;;11.40;5.43;;;;;;;23.64;31.57;101595.56;5051848;28;20610;-76
2021/06/21 06:40:20;;;;;;;9.13;4.57;;;;;;;23.81;31.44;101588.59;5052706;28;20025;-77
2021/06/21 06:42:46;;;;;;;8.27;4.00;;;;;;;23.72;31.56;101597.25;5052829;28;20096;-76
2021/06/21 06:45:13;;;;;;;9.45;4.22;;;;;;;23.73;31.48;101600.88;5052176;28;20029;-75
2021/06/21 06:47:39;;;;;;;8.60;4.32;;;;;;;23.82;31.59;101598.56;5052646;28;20025;-77
2021/06/21 06:50:06;;;;;;;8.48;3.80;;;;;;;23.88;31.19;101601.78;5052698;28;20104;-76
2021/06/21 06:52:33;;;;;;;8.75;3.80;;;;;;;23.96;31.20;101606.28;5052583;28;20044;-75
2021/06/21 06:57:38;;;;;;;14.85;4.50;;;;;;;24.03;30.95;101611.91;5051990;28;20116;-75
2021/06/21 07:00:10;;;;;;;7.05;3.63;;;;;;;23.90;30.85;101602.22;5052057;28;20037;-76
2021/06/21 07:02:35;;;;;;;8.07;4.35;;;;;;;24.11;30.45;101605.22;5052002;28;20033;-75
2021/06/21 07:05:05;;;;;;;6.68;4.28;;;;;;;24.18;30.27;101612.84;5052364;28;20040;-78
2021/06/21 07:07:31;;;;;;;11.10;3.85;;;;;;;24.31;30.32;101616.97;5052481;28;20031;-77
2021/06/21 07:09:57;;;;;;;6.10;3.58;;;;;;;24.28;30.41;101617.75;5052441;28;20115;-77
2021/06/21 07:12:22;;;;;;;14.18;5.68;;;;;;;24.17;30.16;101614.84;5052602;28;20057;-75
2021/06/21 07:14:48;;;;;;;8.32;5.05;;;;;;;24.45;29.67;101621.91;5052371;28;20083;-78
2021/06/21 07:17:14;;;;;;;14.65;4.90;;;;;;;24.33;29.71;101622.97;5052070;28;20059;-77
2021/06/21 07:19:40;;;;;;;10.70;4.10;;;;;;;24.41;29.71;101615.47;5052271;28;20024;-76
2021/06/21 07:22:07;;;;;;;9.15;4.10;;;;;;;24.60;29.47;101621.63;5052017;28;20052;-76
2021/06/21 07:24:33;;;;;;;10.20;4.90;;;;;;;24.74;28.98;101620.91;5052351;28;20040;-76
2021/06/21 07:26:58;;;;;;;12.30;4.18;;;;;;;24.58;29.67;101623.22;5052258;28;20032;-76
2021/06/21 07:29:24;;;;;;;7.90;4.43;;;;;;;24.74;29.33;101637.69;5052338;28;20029;-76
2021/06/21 07:31:50;;;;;;;9.40;4.97;;;;;;;24.86;29.23;101633.75;5052261;28;20033;-75
2021/06/21 07:34:15;;;;;;;12.02;5.03;;;;;;;24.95;28.76;101627.84;5052193;28;20145;-77
2021/06/21 07:36:41;;;;;;;12.55;4.53;;;;;;;24.80;28.86;101641.72;5052142;28;20025;-76
2021/06/21 07:39:08;;;;;;;9.80;4.68;;;;;;;24.82;28.89;101644.94;5052142;28;20079;-76
2021/06/21 07:41:35;;;;;;;11.73;4.60;;;;;;;24.92;29.15;101641.41;5052042;28;20017;-76
2021/06/21 07:44:00;;;;;;;11.70;4.90;;;;;;;24.85;29.12;101649.72;5055270;28;20035;-78
2021/06/21 07:46:27;;;;;;;13.98;6.72;;;;;;;24.73;28.67;101654.84;5056135;28;20100;-77
2021/06/21 07:48:53;;;;;;;9.85;4.65;;;;;;;24.73;28.35;101652.84;5056033;28;20037;-78
2021/06/21 07:51:20;;;;;;;10.45;4.57;;;;;;;24.80;28.84;101657.69;5056076;28;20109;-76
2021/06/21 07:53:47;;;;;;;10.20;4.93;;;;;;;24.70;28.52;101659.22;5073255;28;20363;-77
2021/06/21 07:56:13;;;;;;;12.73;5.18;;;;;;;24.72;28.55;101658.84;5075570;28;20029;-75
2021/06/21 07:58:41;;;;;;;12.15;4.57;;;;;;;24.62;28.74;101646.38;5075871;28;20107;-76
2021/06/21 08:01:08;;;;;;;7.68;4.65;;;;;;;24.59;28.38;101661.13;5075794;28;20424;-76
2021/06/21 08:03:35;;;;;;;10.65;5.45;;;;;;;24.42;28.68;101661.78;5075717;28;20136;-77
2021/06/21 08:06:02;;;;;;;6.82;4.32;;;;;;;24.63;28.18;101656.34;5074179;28;20056;-77
2021/06/21 08:08:28;;;;;;;9.63;4.15;;;;;;;24.62;28.01;101663.13;5073853;28;20052;-77
2021/06/21 08:10:54;;;;;;;10.38;5.85;;;;;;;24.69;27.51;101656.81;5073856;28;20457;-76
2021/06/21 08:13:20;;;;;;;8.73;4.65;;;;;;;24.83;27.76;101665.28;5073889;28;20380;-76
2021/06/21 08:15:45;;;;;;;7.82;4.30;;;;;;;24.87;27.55;101666.94;5073600;28;20029;-76
2021/06/21 08:18:11;;;;;;;7.53;5.03;;;;;;;25.03;27.00;101665.84;5073663;28;20039;-76
2021/06/21 08:20:42;;;;;;;7.28;3.90;;;;;;;25.10;26.98;101666.72;5074183;28;20033;-76
2021/06/21 08:23:14;;;;;;;13.98;5.10;;;;;;;25.09;26.25;101661.50;5075467;28;20032;-75
2021/06/21 08:25:42;;;;;;;9.32;4.47;;;;;;;25.26;26.05;101665.59;5075485;28;20387;-76
2021/06/21 08:28:08;;;;;;;8.20;4.10;;;;;;;25.48;26.10;101667.31;5057457;28;20379;-75
2021/06/21 08:30:34;;;;;;;10.45;4.13;;;;;;;26.03;25.92;101674.72;5075352;28;20513;-75
2021/06/21 08:32:59;;;;;;;10.63;4.13;;;;;;;25.99;25.58;101675.50;5075172;28;20056;-75
2021/06/21 08:35:25;;;;;;;12.10;4.72;;;;;;;26.24;24.87;101660.75;5075124;28;20024;-75
2021/06/21 08:37:52;;;;;;;8.52;3.55;;;;;;;26.49;24.72;101677.63;5075098;28;20028;-76
2021/06/21 08:40:20;;;;;;;11.65;4.70;;;;;;;26.30;24.54;101678.78;5075201;28;20020;-76
2021/06/21 08:42:47;;;;;;;10.57;3.72;;;;;;;26.16;24.09;101687.97;5075175;28;20024;-75
2021/06/21 08:45:14;;;;;;;11.75;3.90;;;;;;;26.12;24.76;101691.94;5075011;28;20028;-76
2021/06/21 08:47:40;;;;;;;5.85;3.70;;;;;;;26.52;24.47;101688.00;5075008;28;20032;-77
2021/06/21 08:50:08;;;;;;;4.72;3.35;;;;;;;26.21;24.52;101697.97;5075096;28;20482;-75
2021/06/21 08:52:34;;;;;;;8.05;3.92;;;;;;;26.45;24.32;101688.00;5074946;28;20035;-76
2021/06/21 08:55:05;;;;;;;5.72;3.65;;;;;;;26.60;24.10;101688.81;5074301;28;20024;-76
2021/06/21 08:57:33;;;;;;;6.88;3.78;;;;;;;26.71;23.93;101695.25;5074775;28;20033;-76
2021/06/21 09:00:00;;;;;;;6.50;3.38;;;;;;;26.60;23.90;101689.66;5074719;28;20033;-75
2021/06/21 09:02:28;;;;;;;8.45;3.72;;;;;;;26.71;23.96;101696.03;5074744;28;20024;-75
2021/06/21 09:04:54;;;;;;;7.75;3.50;;;;;;;26.87;23.63;101695.63;5074637;28;20125;-75
2021/06/21 09:07:23;;;;;;;10.93;4.25;;;;;;;26.93;23.39;101699.63;5074650;28;20474;-75
2021/06/21 09:09:50;;;;;;;9.00;4.18;;;;;;;26.71;23.70;101692.44;5074558;28;20441;-75
2021/06/21 09:12:27;;;;;;;8.25;4.10;;;;;;;27.07;23.67;101699.63;5074528;28;20032;-76
2021/06/21 09:14:55;;;;;;;7.00;4.18;;;;;;;27.04;23.51;101697.63;5074476;28;20020;-75
2021/06/21 09:17:26;;;;;;;8.50;4.50;;;;;;;27.28;23.20;101690.38;5074454;28;20439;-76
2021/06/21 09:19:57;;;;;;;5.65;4.10;;;;;;;27.29;22.26;101696.78;5074322;28;20364;-76
2021/06/21 09:22:24;;;;;;;8.93;4.82;;;;;;;27.48;22.35;101693.50;5074249;28;20040;-75
2021/06/21 09:24:51;;;;;;;9.38;4.22;;;;;;;27.42;22.47;101697.94;5074361;28;20059;-75
2021/06/21 09:27:19;;;;;;;14.02;6.45;;;;;;;27.51;22.44;101703.94;5074393;28;20016;-76
2021/06/21 09:29:44;;;;;;;9.20;4.28;;;;;;;27.76;21.84;101708.69;5074034;28;20055;-75
2021/06/21 09:32:10;;;;;;;6.97;4.97;;;;;;;27.56;22.17;101700.69;5074200;28;20021;-75
2021/06/21 09:34:39;;;;;;;8.75;4.57;;;;;;;27.54;21.91;101700.31;5074016;28;20031;-76
2021/06/21 09:37:08;;;;;;;8.70;4.35;;;;;;;27.70;21.94;101697.06;5074073;28;20032;-76
2021/06/21 09:39:39;;;;;;;7.53;4.75;;;;;;;27.87;21.99;101695.38;5074034;28;20051;-76
2021/06/21 09:42:23;;;;;;;11.73;4.35;;;;;;;27.90;22.38;101709.41;5073981;28;20035;-75
2021/06/21 09:44:55;;;;;;;17.52;5.82;;;;;;;27.65;22.62;101692.63;5073857;28;20025;-76
2021/06/21 09:47:25;;;;;;;10.27;5.10;;;;;;;27.81;22.48;101697.00;5073844;28;20402;-75
2021/06/21 09:50:12;;;;;;;10.77;5.40;;;;;;;27.79;21.86;101694.59;5073762;28;20025;-76
2021/06/21 09:52:59;;;;;;;8.27;4.97;;;;;;;27.76;21.71;101700.25;5073773;28;20028;-76
2021/06/21 09:55:39;;;;;;;5.53;3.97;;;;;;;27.97;21.95;101702.16;5073828;28;20028;-76
2021/06/21 09:58:12;;;;;;;10.85;4.90;;;;;;;28.06;22.07;101700.50;5073505;28;20051;-76
2021/06/21 10:00:40;;;;;;;8.50;4.90;;;;;;;28.25;22.18;101703.97;5073574;28;20099;-76
2021/06/21 10:03:20;;;;;;;11.27;5.35;;;;;;;28.31;22.21;101703.16;5073532;28;20028;-76
2021/06/21 10:06:05;;;;;;;20.25;6.72;;;;;;;28.41;21.85;101702.28;5072600;28;20470;-76
2021/06/21 10:08:46;;;;;;;8.57;4.15;;;;;;;28.46;21.58;101707.47;5073429;28;20581;-76
2021/06/21 10:11:30;;;;;;;9.35;5.32;;;;;;;28.42;21.33;101706.72;5073372;28;20028;-77
2021/06/21 10:14:00;;;;;;;11.57;4.60;;;;;;;28.58;21.52;101711.03;5073361;28;20028;-76
2021/06/21 10:16:26;;;;;;;6.80;4.72;;;;;;;28.47;20.73;101705.47;5073189;28;20028;-76
2021/06/21 10:18:53;;;;;;;12.18;5.25;;;;;;;28.66;20.95;101704.91;5073282;28;20025;-76
2021/06/21 10:21:19;;;;;;;7.65;5.38;;;;;;;28.69;20.99;101709.69;5073218;28;20476;-76
2021/06/21 10:23:45;;;;;;;16.15;6.00;;;;;;;28.84;20.82;101718.81;5073129;28;20050;-76
2021/06/21 10:26:11;;;;;;;7.75;5.05;;;;;;;28.98;20.70;101709.47;5073128;28;20074;-76
2021/06/21 10:28:37;;;;;;;8.40;4.60;;;;;;;28.89;19.96;101717.59;5072888;28;20514;-76
2021/06/21 10:31:03;;;;;;;6.50;4.65;;;;;;;28.89;20.08;101714.78;5072942;28;20055;-75
2021/06/21 10:33:30;;;;;;;7.30;4.63;;;;;;;28.80;20.42;101722.88;5072947;28;20025;-75
2021/06/21 10:36:02;;;;;;;6.97;5.18;;;;;;;28.62;20.30;101720.22;5072301;28;20032;-73
2021/06/21 10:38:28;;;;;;;7.00;4.88;;;;;;;28.84;20.18;101721.63;5071035;28;20115;-76
2021/06/21 10:40:57;;;;;;;8.30;5.53;;;;;;;28.87;19.55;101725.63;5071842;28;20113;-75
2021/06/21 10:43:43;;;;;;;7.78;4.63;;;;;;;29.25;19.52;101729.31;5072566;28;20098;-75
2021/06/21 10:46:29;;;;;;;6.68;4.45;;;;;;;28.85;19.52;101728.84;5072811;28;20107;-76
2021/06/21 10:49:06;;;;;;;8.82;4.88;;;;;;;29.09;19.64;101720.63;5072800;28;20028;-75
2021/06/21 10:51:37;;;;;;;7.03;4.95;;;;;;;29.26;19.18;101734.53;5072847;28;20486;-75
2021/06/21 10:54:04;;;;;;;11.77;5.22;;;;;;;29.42;19.37;101742.41;5053880;28;20421;-75
2021/06/21 10:56:59;;;;;;;6.35;3.92;;;;;;;29.11;18.87;101724.63;5054643;28;20024;-76
2021/06/21 10:59:27;;;;;;;11.30;5.70;;;;;;;29.24;19.21;101722.88;5037816;28;20041;-78
2021/06/21 11:01:58;;;;;;;9.38;4.68;;;;;;;29.46;19.26;101728.25;5072725;28;20107;-76
2021/06/21 11:04:32;;;;;;;7.88;4.10;;;;;;;29.32;19.24;101725.59;5072619;28;20028;-75
2021/06/21 11:07:19;;;;;;;7.25;3.80;;;;;;;28.74;19.07;101734.56;5072288;28;20028;-75
2021/06/21 11:09:55;;;;;;;7.57;4.20;;;;;;;28.87;19.37;101728.44;5072591;28;20065;-75
2021/06/21 11:12:21;;;;;;;8.98;4.88;;;;;;;29.10;19.50;101734.28;5072523;28;20020;-84
2021/06/21 11:15:09;;;;;;;7.25;4.28;;;;;;;29.37;18.59;101739.22;5072497;28;20051;-74
2021/06/21 11:17:50;;;;;;;7.20;4.72;;;;;;;29.52;18.93;101729.44;5054132;28;20063;-75
2021/06/21 11:20:34;;;;;;;7.43;4.10;;;;;;;29.40;18.87;101735.59;5072384;28;20063;-77
2021/06/21 11:23:02;;;;;;;8.80;3.90;;;;;;;29.50;19.25;101735.50;5072453;28;20044;-77
2021/06/21 11:25:54;;;;;;;6.85;4.88;;;;;;;29.70;18.98;101735.66;5072371;28;20025;-76
2021/06/21 11:28:49;;;;;;;7.85;4.38;;;;;;;29.64;18.48;101739.38;5050312;28;20036;-77
2021/06/21 11:31:17;;;;;;;8.98;5.15;;;;;;;29.38;18.69;101738.81;5049969;28;20385;-76
2021/06/21 11:33:53;;;;;;;8.65;5.72;;;;;;;29.92;18.70;101743.81;5071785;28;20025;-77